Time;durP1;ratioP1;P1;durP2;ratioP2;P2;SDS_P1;SDS_P2;PMS_P1;PMS_P2;Temp;Humidity;BMP_temperature;BMP_pressure;BME280_temperature;BME280_humidity;BME280_pressure;Samples;Min_cycle;Max_cycle;Signal;HPM_P1;HPM_P2
2022/02/15 00:00:23;;;;;;;0.80;0.70;;;6.60;99.90;;;;;;5022739;28;20274;-70
2022/02/15 00:02:50;;;;;;;0.70;0.40;;;6.70;99.90;;;;;;5055312;28;20221;-69
2022/02/15 00:05:16;;;;;;;0.70;0.50;;;6.70;99.90;;;;;;5054796;28;20170;-71
2022/02/15 00:07:42;;;;;;;3.80;2.30;;;6.70;99.90;;;;;;5054936;28;20496;-70
2022/02/15 00:10:08;;;;;;;0.70;0.50;;;6.70;99.90;;;;;;5055004;28;20452;-71
2022/02/15 00:12:35;;;;;;;0.70;0.50;;;6.80;99.90;;;;;;5033914;28;20237;-70
2022/02/15 00:15:01;;;;;;;0.70;0.50;;;6.80;99.90;;;;;;5031081;28;20474;-69
2022/02/15 00:17:26;;;;;;;0.70;0.50;;;6.90;99.90;;;;;;5014835;28;20403;-69
2022/02/15 00:19:52;;;;;;;0.70;0.50;;;6.90;99.90;;;;;;5014942;28;20427;-70
2022/02/15 00:22:17;;;;;;;0.70;0.50;;;7.00;99.90;;;;;;5049104;28;20175;-69
2022/02/15 00:24:43;;;;;;;0.70;0.50;;;7.00;99.90;;;;;;5054619;28;20171;-69
2022/02/15 00:27:08;;;;;;;0.70;0.50;;;7.00;99.90;;;;;;5044562;28;20179;-70
2022/02/15 00:29:34;;;;;;;0.70;0.50;;;7.10;99.90;;;;;;5031339;28;20199;-70
2022/02/15 00:31:59;;;;;;;0.70;0.50;;;7.20;99.90;;;;;;5043483;28;20644;-69
2022/02/15 00:34:25;;;;;;;0.70;0.60;;;7.30;99.90;;;;;;5032903;28;20167;-70
2022/02/15 00:36:51;;;;;;;0.70;0.50;;;7.30;99.90;;;;;;5034349;28;20206;-71
2022/02/15 00:39:16;;;;;;;0.70;0.50;;;7.40;99.90;;;;;;5046205;28;20175;-70
2022/02/15 00:41:42;;;;;;;0.70;0.60;;;7.40;99.90;;;;;;5041234;28;20221;-71
2022/02/15 00:44:07;;;;;;;0.70;0.50;;;7.50;99.90;;;;;;5035552;28;20171;-71
2022/02/15 00:46:33;;;;;;;2.20;2.00;;;7.60;99.90;;;;;;5032563;28;20172;-71
2022/02/15 00:48:59;;;;;;;0.80;0.70;;;7.60;99.90;;;;;;5031392;28;20167;-70
2022/02/15 00:51:24;;;;;;;0.70;0.50;;;7.70;99.90;;;;;;5037178;28;20195;-71
2022/02/15 00:53:50;;;;;;;0.70;0.50;;;7.70;99.90;;;;;;5052074;28;20229;-69
2022/02/15 00:56:16;;;;;;;16.83;0.90;;;7.70;99.90;;;;;;5051829;28;20202;-69
2022/02/15 00:58:41;;;;;;;0.70;0.50;;;7.80;99.90;;;;;;5052777;28;20173;-69
2022/02/15 01:01:07;;;;;;;0.70;0.60;;;7.80;99.90;;;;;;5045922;28;20195;-70
2022/02/15 01:03:32;;;;;;;0.70;0.50;;;7.80;99.90;;;;;;5032702;28;20669;-69
2022/02/15 01:05:59;;;;;;;1.13;1.03;;;7.90;99.90;;;;;;5033236;28;20259;-69
2022/02/15 01:08:26;;;;;;;0.70;0.50;;;7.90;99.90;;;;;;5014147;28;20264;-71
2022/02/15 01:10:51;;;;;;;0.80;0.70;;;8.00;99.90;;;;;;5025718;28;21022;-70
2022/02/15 01:13:17;;;;;;;0.70;0.50;;;8.00;99.90;;;;;;5033892;28;20509;-69
2022/02/15 01:15:43;;;;;;;0.70;0.50;;;8.10;99.90;;;;;;5027882;28;20227;-69
2022/02/15 01:18:09;;;;;;;0.70;0.50;;;8.10;99.90;;;;;;5036155;28;20419;-68
2022/02/15 01:20:35;;;;;;;0.70;0.50;;;8.10;99.90;;;;;;5033892;28;20963;-72
2022/02/15 01:23:00;;;;;;;0.70;0.50;;;8.10;99.90;;;;;;5043061;28;20648;-71
2022/02/15 01:25:27;;;;;;;0.97;0.87;;;8.10;99.90;;;;;;5033395;28;20175;-71
2022/02/15 01:27:56;;;;;;;0.70;0.50;;;8.10;99.90;;;;;;5033772;28;20195;-71
2022/02/15 01:30:22;;;;;;;0.70;0.50;;;8.20;99.90;;;;;;5029687;28;20446;-71
2022/02/15 01:32:48;;;;;;;3.33;1.00;;;8.20;99.90;;;;;;5050528;28;20471;-70
2022/02/15 01:35:15;;;;;;;0.70;0.50;;;8.20;99.90;;;;;;5052904;28;20214;-70
2022/02/15 01:37:41;;;;;;;0.70;0.50;;;8.20;99.90;;;;;;5051918;28;20421;-72
2022/02/15 01:40:08;;;;;;;0.70;0.47;;;8.20;99.90;;;;;;5018342;28;21023;-71
2022/02/15 01:42:35;;;;;;;0.70;0.50;;;8.30;99.90;;;;;;5031304;28;20472;-69
2022/02/15 01:45:00;;;;;;;2.83;2.60;;;8.30;99.90;;;;;;5043715;28;20854;-70
2022/02/15 01:47:29;;;;;;;0.70;0.50;;;8.30;99.90;;;;;;5041363;28;20449;-70
2022/02/15 01:49:56;;;;;;;0.93;0.70;;;8.30;99.90;;;;;;5029984;28;20699;-71
2022/02/15 01:52:22;;;;;;;0.70;0.50;;;8.40;99.90;;;;;;5033574;28;20513;-71
2022/02/15 01:54:54;;;;;;;0.70;0.50;;;8.40;99.90;;;;;;5032628;28;20422;-71
2022/02/15 01:57:22;;;;;;;0.70;0.50;;;8.40;99.90;;;;;;5039750;28;20429;-71
2022/02/15 01:59:48;;;;;;;0.70;0.50;;;8.40;99.90;;;;;;5052891;28;20429;-71
2022/02/15 02:02:14;;;;;;;0.70;0.50;;;8.40;99.90;;;;;;5050901;28;20767;-71
2022/02/15 02:07:27;;;;;;;0.70;0.60;;;8.40;99.90;;;;;;5043913;28;20424;-71
2022/02/15 02:09:53;;;;;;;1.73;1.63;;;8.50;99.90;;;;;;5039680;28;20825;-71
2022/02/15 02:12:19;;;;;;;0.80;0.73;;;8.50;99.90;;;;;;5034929;28;20426;-71
2022/02/15 02:14:56;;;;;;;1.00;0.60;;;8.50;99.90;;;;;;5031095;28;20413;-70
2022/02/15 02:17:22;;;;;;;0.87;0.87;;;8.50;99.90;;;;;;5027734;28;20421;-69
2022/02/15 02:19:47;;;;;;;0.70;0.50;;;8.50;99.90;;;;;;5051897;28;20841;-70
2022/02/15 02:22:13;;;;;;;0.70;0.50;;;8.50;99.90;;;;;;5049284;28;20551;-70
2022/02/15 02:24:38;;;;;;;0.70;0.50;;;8.50;99.90;;;;;;5036662;28;20674;-68
2022/02/15 02:27:04;;;;;;;0.70;0.50;;;8.60;99.90;;;;;;5040961;28;20190;-69
2022/02/15 02:29:29;;;;;;;1.90;1.57;;;8.60;99.90;;;;;;5035139;28;20271;-70
2022/02/15 02:31:55;;;;;;;0.70;0.60;;;8.50;99.90;;;;;;5041641;28;20170;-71
2022/02/15 02:34:21;;;;;;;1.00;0.73;;;8.50;99.90;;;;;;5051858;28;20171;-69
2022/02/15 02:36:48;;;;;;;0.70;0.50;;;8.50;99.90;;;;;;5049056;28;20667;-69
2022/02/15 02:39:13;;;;;;;0.80;0.77;;;8.50;99.90;;;;;;5028642;28;20650;-70
2022/02/15 02:41:39;;;;;;;0.70;0.60;;;8.50;99.90;;;;;;5025188;28;20578;-69
2022/02/15 02:44:05;;;;;;;0.70;0.50;;;8.50;99.90;;;;;;5012492;28;20660;-69
2022/02/15 02:46:31;;;;;;;1.20;1.10;;;8.50;99.90;;;;;;5033271;28;20523;-70
2022/02/15 02:48:56;;;;;;;0.90;0.70;;;8.50;99.90;;;;;;5035819;28;20187;-71
2022/02/15 02:51:22;;;;;;;0.80;0.60;;;8.50;99.90;;;;;;5041434;28;20205;-70
2022/02/15 02:53:47;;;;;;;1.17;0.70;;;8.50;99.90;;;;;;5051981;28;20193;-71
2022/02/15 02:56:13;;;;;;;1.30;1.20;;;8.50;99.90;;;;;;5051413;28;20290;-71
2022/02/15 02:58:38;;;;;;;0.93;0.87;;;8.50;99.90;;;;;;5034532;28;20172;-71
2022/02/15 03:01:04;;;;;;;0.80;0.53;;;8.50;99.90;;;;;;5031999;28;20187;-71
2022/02/15 03:03:29;;;;;;;0.80;0.70;;;8.50;99.90;;;;;;5030768;28;20222;-71
2022/02/15 03:05:55;;;;;;;0.70;0.50;;;8.50;99.90;;;;;;5031793;28;20633;-71
2022/02/15 03:08:20;;;;;;;0.80;0.70;;;8.50;99.90;;;;;;5049510;28;20178;-69
2022/02/15 03:10:46;;;;;;;0.70;0.50;;;8.50;99.90;;;;;;5049946;28;20229;-72
2022/02/15 03:13:11;;;;;;;0.70;0.50;;;8.50;99.90;;;;;;5048404;28;20176;-72
2022/02/15 03:15:37;;;;;;;0.70;0.50;;;8.60;99.90;;;;;;5050227;28;20601;-72
2022/02/15 03:18:03;;;;;;;2.13;2.03;;;8.60;99.90;;;;;;5051477;28;20178;-71
2022/02/15 03:20:28;;;;;;;0.70;0.50;;;8.60;99.90;;;;;;5051795;28;20551;-70
2022/02/15 03:22:54;;;;;;;1.20;1.10;;;8.60;99.90;;;;;;5049869;28;20175;-72
2022/02/15 03:25:19;;;;;;;0.70;0.50;;;8.60;99.90;;;;;;5031461;28;20248;-72
2022/02/15 03:27:45;;;;;;;0.70;0.60;;;8.60;99.90;;;;;;5033083;28;20171;-70
2022/02/15 03:30:11;;;;;;;0.70;0.50;;;8.60;99.90;;;;;;5034995;28;20231;-71
2022/02/15 03:32:38;;;;;;;0.80;0.70;;;8.60;99.90;;;;;;5035716;28;20226;-70
2022/02/15 03:35:04;;;;;;;0.87;0.67;;;8.60;99.90;;;;;;5034069;28;20207;-71
2022/02/15 03:37:30;;;;;;;0.83;0.70;;;8.60;99.90;;;;;;5035679;28;20476;-71
2022/02/15 03:39:55;;;;;;;0.70;0.50;;;8.60;99.90;;;;;;5036638;28;20445;-71
2022/02/15 03:45:05;;;;;;;0.70;0.50;;;8.60;99.90;;;;;;5015378;28;20199;-71
2022/02/15 03:47:31;;;;;;;0.90;0.77;;;8.50;99.90;;;;;;5034901;28;20421;-71
2022/02/15 03:49:56;;;;;;;2.03;0.87;;;8.60;99.90;;;;;;5035899;28;20445;-70
2022/02/15 03:52:22;;;;;;;0.70;0.60;;;8.60;99.90;;;;;;5044063;28;20183;-69
2022/02/15 03:54:47;;;;;;;0.70;0.50;;;8.60;99.90;;;;;;5053393;28;20214;-69
2022/02/15 03:57:13;;;;;;;1.43;1.07;;;8.60;99.90;;;;;;5052977;28;20163;-69
2022/02/15 03:59:38;;;;;;;0.80;0.70;;;8.50;99.90;;;;;;5044039;28;20168;-69
2022/02/15 04:02:04;;;;;;;1.00;0.70;;;8.50;99.90;;;;;;5024397;28;20222;-69
2022/02/15 04:04:30;;;;;;;0.70;0.50;;;8.50;99.90;;;;;;5036745;28;20593;-69
2022/02/15 04:06:55;;;;;;;0.70;0.60;;;8.40;99.90;;;;;;5044915;28;20176;-69
2022/02/15 04:09:21;;;;;;;0.80;0.70;;;8.30;99.90;;;;;;5035103;28;20183;-69
2022/02/15 04:11:47;;;;;;;0.70;0.50;;;8.20;99.90;;;;;;5033654;28;20533;-69
2022/02/15 04:14:12;;;;;;;0.70;0.50;;;8.20;99.90;;;;;;5026899;28;20180;-69
2022/02/15 04:16:38;;;;;;;0.87;0.67;;;8.20;99.90;;;;;;5034281;28;20195;-70
2022/02/15 04:19:03;;;;;;;0.70;0.50;;;8.10;99.90;;;;;;5023956;28;20173;-71
2022/02/15 04:21:29;;;;;;;0.90;0.90;;;8.00;99.90;;;;;;5033246;28;20195;-71
2022/02/15 04:23:55;;;;;;;1.00;0.90;;;8.00;99.90;;;;;;5034731;28;20163;-71
2022/02/15 04:26:20;;;;;;;0.93;0.83;;;7.90;99.90;;;;;;5035406;28;20187;-71
2022/02/15 04:28:46;;;;;;;0.70;0.50;;;7.80;99.90;;;;;;5053780;28;20182;-71
2022/02/15 04:31:11;;;;;;;1.27;0.90;;;7.70;99.90;;;;;;5051228;28;20692;-71
2022/02/15 04:33:37;;;;;;;0.70;0.50;;;7.60;99.90;;;;;;5038917;28;20171;-71
2022/02/15 04:36:03;;;;;;;0.70;0.50;;;7.50;99.90;;;;;;5054249;28;20693;-71
2022/02/15 04:38:29;;;;;;;0.90;0.60;;;7.40;99.90;;;;;;5054048;28;20171;-71
2022/02/15 04:40:54;;;;;;;0.70;0.50;;;7.30;99.90;;;;;;5038844;28;20274;-69
2022/02/15 04:43:20;;;;;;;0.70;0.50;;;7.30;99.90;;;;;;5014989;28;20173;-69
2022/02/15 04:45:45;;;;;;;1.10;1.00;;;7.20;99.90;;;;;;5013101;28;20176;-70
2022/02/15 04:48:11;;;;;;;0.70;0.40;;;7.10;99.90;;;;;;5039696;28;20220;-70
2022/02/15 04:50:36;;;;;;;0.90;0.77;;;7.00;99.90;;;;;;5054240;28;20256;-71
2022/02/15 04:53:02;;;;;;;0.77;0.67;;;7.00;99.90;;;;;;5052724;28;20571;-71
2022/02/15 04:55:27;;;;;;;3.13;3.03;;;6.90;99.90;;;;;;5052581;28;20226;-71
2022/02/15 04:57:53;;;;;;;0.70;0.50;;;6.90;99.90;;;;;;5038637;28;20172;-71
2022/02/15 05:00:18;;;;;;;0.70;0.50;;;6.90;99.90;;;;;;5035116;28;20196;-71
2022/02/15 05:02:44;;;;;;;0.80;0.70;;;6.80;99.90;;;;;;5054221;28;20170;-71
2022/02/15 05:05:10;;;;;;;1.27;0.90;;;6.80;99.90;;;;;;5052498;28;20179;-71
2022/02/15 05:07:35;;;;;;;0.70;0.50;;;6.80;99.90;;;;;;5053981;28;20179;-70
2022/02/15 05:10:03;;;;;;;0.80;0.60;;;6.80;99.90;;;;;;5053547;28;20217;-71
2022/02/15 05:12:31;;;;;;;0.70;0.50;;;6.90;99.90;;;;;;5039986;28;20186;-69
2022/02/15 05:14:56;;;;;;;0.80;0.60;;;6.90;99.90;;;;;;5045133;28;20425;-70
2022/02/15 05:17:22;;;;;;;0.70;0.50;;;7.00;99.90;;;;;;5052515;28;20975;-70
2022/02/15 05:19:47;;;;;;;1.17;1.07;;;7.00;99.90;;;;;;5052291;28;20256;-69
2022/02/15 05:22:13;;;;;;;0.70;0.43;;;7.10;99.90;;;;;;5052339;28;20895;-69
2022/02/15 05:24:38;;;;;;;1.33;0.80;;;7.10;99.90;;;;;;5053668;28;20530;-70
2022/02/15 05:27:04;;;;;;;2.10;0.90;;;7.20;99.90;;;;;;5052217;28;20202;-70
2022/02/15 05:29:30;;;;;;;2.40;1.70;;;7.20;99.90;;;;;;5013681;28;20172;-70
2022/02/15 05:31:55;;;;;;;1.20;0.70;;;7.20;99.90;;;;;;5029057;28;20189;-71
2022/02/15 05:34:21;;;;;;;0.80;0.60;;;7.20;99.90;;;;;;5013836;28;20172;-71
2022/02/15 05:36:47;;;;;;;0.70;0.50;;;7.30;99.90;;;;;;5041520;28;20562;-71
2022/02/15 05:39:13;;;;;;;1.37;1.27;;;7.30;99.90;;;;;;5052115;28;20425;-71
2022/02/15 05:41:38;;;;;;;0.70;0.50;;;7.30;99.90;;;;;;5041688;28;20218;-72
2022/02/15 05:44:04;;;;;;;0.80;0.80;;;7.30;99.90;;;;;;5030869;28;20559;-72
2022/02/15 05:46:29;;;;;;;0.70;0.67;;;7.30;99.90;;;;;;5031156;28;20248;-72
2022/02/15 05:48:55;;;;;;;0.70;0.57;;;7.30;99.90;;;;;;5033232;28;20176;-72
2022/02/15 05:51:21;;;;;;;3.20;2.20;;;7.30;99.90;;;;;;5033089;28;20196;-70
2022/02/15 05:53:46;;;;;;;1.80;0.97;;;7.30;99.90;;;;;;5033061;28;20249;-73
2022/02/15 05:56:12;;;;;;;0.70;0.60;;;7.30;99.90;;;;;;5012372;28;20235;-72
2022/02/15 05:58:38;;;;;;;0.70;0.57;;;7.30;99.90;;;;;;5013433;28;20203;-70
2022/02/15 06:01:03;;;;;;;0.70;0.50;;;7.40;99.90;;;;;;5016449;28;20196;-72
2022/02/15 06:06:13;;;;;;;0.70;0.50;;;7.40;99.90;;;;;;5032951;28;20659;-72
2022/02/15 06:08:39;;;;;;;0.70;0.57;;;7.50;99.90;;;;;;5044150;28;20422;-71
2022/02/15 06:11:05;;;;;;;2.13;1.17;;;7.50;99.90;;;;;;5052633;28;20214;-69
2022/02/15 06:13:30;;;;;;;0.73;0.60;;;7.50;99.90;;;;;;5052613;28;20166;-70
2022/02/15 06:15:56;;;;;;;0.93;0.60;;;7.40;99.90;;;;;;5052297;28;20256;-70
2022/02/15 06:18:22;;;;;;;0.70;0.50;;;7.40;99.90;;;;;;5017124;28;20423;-71
2022/02/15 06:20:48;;;;;;;0.80;0.70;;;7.40;99.90;;;;;;5014197;28;20419;-72
2022/02/15 06:23:13;;;;;;;1.13;1.03;;;7.30;99.90;;;;;;5052189;28;20226;-71
2022/02/15 06:25:39;;;;;;;1.07;0.83;;;7.30;99.90;;;;;;5050985;28;20194;-71
2022/02/15 06:28:04;;;;;;;1.43;0.70;;;7.30;99.90;;;;;;5043411;28;20175;-70
2022/02/15 06:30:30;;;;;;;1.00;1.00;;;7.30;99.90;;;;;;5032406;28;20199;-69
2022/02/15 06:32:56;;;;;;;0.90;0.70;;;7.30;99.90;;;;;;5039005;28;20167;-71
2022/02/15 06:35:22;;;;;;;0.70;0.50;;;7.30;99.90;;;;;;5025568;28;20203;-71
2022/02/15 06:37:50;;;;;;;0.70;0.50;;;7.30;99.90;;;;;;5032534;28;20460;-70
2022/02/15 06:40:17;;;;;;;0.70;0.50;;;7.30;99.90;;;;;;5032177;28;20484;-70
2022/02/15 06:42:43;;;;;;;0.70;0.50;;;7.30;99.90;;;;;;5030958;28;20479;-71
2022/02/15 06:45:09;;;;;;;0.70;0.50;;;7.30;99.90;;;;;;5039350;28;20482;-70
2022/02/15 06:47:35;;;;;;;0.70;0.60;;;7.30;99.90;;;;;;5040368;28;20846;-71
2022/02/15 06:50:02;;;;;;;0.70;0.50;;;7.30;99.90;;;;;;5028610;28;20486;-70
2022/02/15 06:52:28;;;;;;;1.00;0.63;;;7.30;99.90;;;;;;5029569;28;20429;-72
2022/02/15 06:54:54;;;;;;;1.43;1.10;;;7.30;99.90;;;;;;5031779;28;21002;-72
2022/02/15 06:57:19;;;;;;;0.70;0.50;;;7.30;99.90;;;;;;5030769;28;20457;-72
2022/02/15 06:59:45;;;;;;;1.53;1.23;;;7.30;99.90;;;;;;5030872;28;20167;-72
2022/02/15 07:02:11;;;;;;;1.43;1.27;;;7.30;99.90;;;;;;5039852;28;20445;-72
2022/02/15 07:04:36;;;;;;;1.90;1.30;;;7.40;99.90;;;;;;5045666;28;20172;-71
2022/02/15 07:07:02;;;;;;;0.90;0.90;;;7.40;99.90;;;;;;5031682;28;20175;-72
2022/02/15 07:09:28;;;;;;;1.77;1.67;;;7.50;99.90;;;;;;5031781;28;20175;-72
2022/02/15 07:11:53;;;;;;;0.70;0.67;;;7.50;99.90;;;;;;5050914;28;20495;-71
2022/02/15 07:14:19;;;;;;;0.70;0.50;;;7.50;99.90;;;;;;5049703;28;20202;-71
2022/02/15 07:16:45;;;;;;;3.43;3.23;;;7.50;99.90;;;;;;5031533;28;20195;-71
2022/02/15 07:19:11;;;;;;;0.70;0.47;;;7.50;99.90;;;;;;5031847;28;20174;-70
2022/02/15 07:21:37;;;;;;;0.70;0.60;;;7.60;99.90;;;;;;5023354;28;20443;-71
2022/02/15 07:24:04;;;;;;;7.03;2.47;;;7.60;99.90;;;;;;5010738;28;20172;-70
2022/02/15 07:26:30;;;;;;;1.83;0.83;;;7.60;99.90;;;;;;5010520;28;20423;-71
2022/02/15 07:28:56;;;;;;;0.80;0.60;;;7.60;99.90;;;;;;5034307;28;20457;-72
2022/02/15 07:31:22;;;;;;;0.70;0.50;;;7.60;99.90;;;;;;5049899;28;20457;-72
2022/02/15 07:33:47;;;;;;;0.70;0.60;;;7.60;99.90;;;;;;5051651;28;20416;-70
2022/02/15 07:36:14;;;;;;;0.80;0.70;;;7.70;99.90;;;;;;5051293;28;20198;-70
2022/02/15 07:38:39;;;;;;;0.70;0.50;;;7.70;99.90;;;;;;5039244;28;20171;-71
2022/02/15 07:41:06;;;;;;;2.30;2.10;;;7.80;99.90;;;;;;5050107;28;20450;-72
2022/02/15 07:43:32;;;;;;;0.80;0.60;;;7.90;99.90;;;;;;5051398;28;20182;-71
2022/02/15 07:45:57;;;;;;;0.70;0.50;;;8.00;99.90;;;;;;5045551;28;20434;-71
2022/02/15 07:48:23;;;;;;;1.77;0.83;;;8.10;99.90;;;;;;5031906;28;20543;-70
2022/02/15 07:50:49;;;;;;;0.70;0.50;;;8.10;99.90;;;;;;5031642;28;20275;-69
2022/02/15 07:53:14;;;;;;;0.70;0.50;;;8.20;99.90;;;;;;5030202;28;20210;-70
2022/02/15 07:55:41;;;;;;;0.70;0.70;;;8.30;99.90;;;;;;5028070;28;20569;-70
2022/02/15 07:58:07;;;;;;;0.70;0.50;;;8.30;99.90;;;;;;5031545;28;20164;-70
2022/02/15 08:00:33;;;;;;;1.03;0.97;;;8.40;99.90;;;;;;5031325;28;20422;-70
2022/02/15 08:02:59;;;;;;;1.50;1.40;;;8.40;99.90;;;;;;5031510;28;20416;-70
2022/02/15 08:05:26;;;;;;;0.70;0.70;;;8.50;99.90;;;;;;5041608;28;20429;-70
2022/02/15 08:07:54;;;;;;;0.70;0.50;;;8.60;99.90;;;;;;5051008;28;20175;-69
2022/02/15 08:10:21;;;;;;;0.80;0.70;;;8.70;99.90;;;;;;5051171;28;20437;-69
2022/02/15 08:12:48;;;;;;;0.80;0.70;;;8.70;99.90;;;;;;5012209;28;20573;-70
2022/02/15 08:15:14;;;;;;;1.23;1.03;;;8.80;99.90;;;;;;5013024;28;20443;-69
2022/02/15 08:17:40;;;;;;;1.00;0.70;;;8.80;99.90;;;;;;5016605;28;20403;-70
2022/02/15 08:20:06;;;;;;;1.17;1.07;;;8.80;99.90;;;;;;5054667;28;21052;-69
2022/02/15 08:22:32;;;;;;;0.70;0.50;;;8.90;99.90;;;;;;5042724;28;20418;-70
2022/02/15 08:24:58;;;;;;;0.70;0.50;;;8.90;99.90;;;;;;5033352;28;21067;-70
2022/02/15 08:27:24;;;;;;;1.83;1.37;;;8.90;99.90;;;;;;5035047;28;20430;-70
2022/02/15 08:29:49;;;;;;;0.70;0.50;;;8.90;99.90;;;;;;5017783;28;20204;-70
2022/02/15 08:32:15;;;;;;;1.37;0.70;;;9.00;99.90;;;;;;5031990;28;20255;-70
2022/02/15 08:34:40;;;;;;;2.00;1.90;;;9.10;99.90;;;;;;5035860;28;20644;-70
2022/02/15 08:37:06;;;;;;;0.70;0.50;;;9.20;99.90;;;;;;5014583;28;20231;-69
2022/02/15 08:39:32;;;;;;;0.90;0.70;;;9.30;99.90;;;;;;5014749;28;20178;-70
2022/02/15 08:42:04;;;;;;;1.83;1.00;;;9.40;99.90;;;;;;5013622;28;20172;-70
2022/02/15 08:44:34;;;;;;;0.80;0.70;;;9.70;99.90;;;;;;5022727;28;20172;-70
2022/02/15 08:47:00;;;;;;;0.80;0.70;;;10.20;99.90;;;;;;5014483;28;20478;-69
2022/02/15 08:49:26;;;;;;;2.00;1.80;;;10.60;99.90;;;;;;5038582;28;20425;-70
2022/02/15 08:51:52;;;;;;;4.70;1.93;;;10.80;99.90;;;;;;5053000;28;20422;-70
2022/02/15 08:54:18;;;;;;;1.83;1.73;;;10.90;99.90;;;;;;5019584;28;20954;-70
2022/02/15 08:56:44;;;;;;;1.60;1.43;;;11.00;99.90;;;;;;5014135;28;20188;-70
2022/02/15 08:59:09;;;;;;;0.80;0.80;;;11.20;99.90;;;;;;5029042;28;20422;-70
2022/02/15 09:01:35;;;;;;;1.07;0.90;;;11.30;99.90;;;;;;5035178;28;20672;-70
2022/02/15 09:04:00;;;;;;;0.70;0.50;;;11.30;99.90;;;;;;5043141;28;20180;-70
2022/02/15 09:06:26;;;;;;;1.33;1.23;;;11.30;99.90;;;;;;5014162;28;20248;-70
2022/02/15 09:08:52;;;;;;;1.10;0.97;;;11.30;99.90;;;;;;5014195;28;20696;-70
2022/02/15 09:11:18;;;;;;;0.80;0.70;;;11.20;99.90;;;;;;5014095;28;20192;-71
2022/02/15 09:13:43;;;;;;;0.70;0.50;;;11.10;99.90;;;;;;5030980;28;20206;-71
2022/02/15 09:16:09;;;;;;;1.00;0.80;;;11.00;99.90;;;;;;5014370;28;20459;-69
2022/02/15 09:18:35;;;;;;;0.70;0.50;;;11.00;99.90;;;;;;5013993;28;20251;-70
2022/02/15 09:21:01;;;;;;;1.00;0.70;;;10.90;99.90;;;;;;5040846;28;20547;-70
2022/02/15 09:23:27;;;;;;;0.90;0.60;;;10.80;99.90;;;;;;5053579;28;20171;-70
2022/02/15 09:25:53;;;;;;;1.43;0.83;;;10.80;99.90;;;;;;5053042;28;20178;-70
2022/02/15 09:28:19;;;;;;;1.10;1.00;;;10.70;99.90;;;;;;5036723;28;20820;-70
2022/02/15 09:30:46;;;;;;;1.27;0.93;;;10.60;99.90;;;;;;5013989;28;20196;-70
2022/02/15 09:33:12;;;;;;;1.30;1.20;;;10.50;99.90;;;;;;5013865;28;20172;-69
2022/02/15 09:35:37;;;;;;;0.70;0.50;;;10.40;99.90;;;;;;5013420;28;20883;-70
2022/02/15 09:38:03;;;;;;;0.73;0.60;;;10.40;99.90;;;;;;5012368;28;20168;-70
2022/02/15 09:40:28;;;;;;;0.70;0.60;;;10.40;99.90;;;;;;5018027;28;20183;-70
2022/02/15 09:42:55;;;;;;;0.70;0.60;;;10.40;99.90;;;;;;5053328;28;20211;-70
2022/02/15 09:45:21;;;;;;;0.70;0.50;;;10.30;99.90;;;;;;5043096;28;20182;-70
2022/02/15 09:47:48;;;;;;;1.73;1.63;;;10.30;99.90;;;;;;5033509;28;20407;-70
2022/02/15 09:50:14;;;;;;;3.63;1.33;;;10.30;99.90;;;;;;5033569;28;20278;-69
2022/02/15 09:52:46;;;;;;;1.43;0.90;;;10.40;99.90;;;;;;5033766;28;20503;-70
2022/02/15 09:55:12;;;;;;;1.73;1.37;;;10.50;99.90;;;;;;5045225;28;20199;-70
2022/02/15 09:57:38;;;;;;;0.87;0.77;;;10.70;99.90;;;;;;5053012;28;20402;-70
2022/02/15 10:00:04;;;;;;;0.70;0.50;;;11.00;99.90;;;;;;5051412;28;20909;-70
2022/02/15 10:02:34;;;;;;;1.77;0.83;;;11.50;99.90;;;;;;5015752;28;20251;-69
2022/02/15 10:05:01;;;;;;;1.50;1.10;;;12.10;99.90;;;;;;5033027;28;20485;-69
2022/02/15 10:07:28;;;;;;;1.60;1.50;;;12.40;99.90;;;;;;5050264;28;20426;-70
2022/02/15 10:09:55;;;;;;;1.10;1.00;;;12.60;99.90;;;;;;5013217;28;20842;-70
2022/02/15 10:12:24;;;;;;;1.10;1.00;;;12.70;99.90;;;;;;5013032;28;20947;-69
2022/02/15 10:14:52;;;;;;;0.77;0.57;;;12.80;99.90;;;;;;5013015;28;20770;-69
2022/02/15 10:17:19;;;;;;;0.83;0.83;;;12.80;99.90;;;;;;5012938;28;20415;-71
2022/02/15 10:19:48;;;;;;;1.00;0.73;;;12.80;99.90;;;;;;5023481;28;20418;-71
2022/02/15 10:22:18;;;;;;;1.30;0.80;;;12.70;99.90;;;;;;5032495;28;20414;-71
2022/02/15 10:24:49;;;;;;;1.00;0.90;;;12.70;99.90;;;;;;5031355;28;20407;-70
2022/02/15 10:27:16;;;;;;;0.93;0.83;;;12.80;99.90;;;;;;5031072;28;20457;-71
2022/02/15 10:29:43;;;;;;;0.97;0.87;;;12.70;99.90;;;;;;5032466;28;20441;-70
2022/02/15 10:32:14;;;;;;;1.17;1.03;;;12.70;99.90;;;;;;5031356;28;20464;-71
2022/02/15 10:34:49;;;;;;;0.90;0.90;;;12.60;99.90;;;;;;5026882;28;20418;-72
2022/02/15 10:37:16;;;;;;;0.70;0.50;;;12.50;99.90;;;;;;5031863;28;20409;-71
2022/02/15 10:39:50;;;;;;;1.53;1.10;;;12.30;99.90;;;;;;5043038;28;20428;-71
2022/02/15 10:42:18;;;;;;;0.90;0.73;;;12.20;99.90;;;;;;5050708;28;20458;-71
2022/02/15 10:44:53;;;;;;;0.80;0.60;;;12.20;99.90;;;;;;5052184;28;20405;-71
2022/02/15 10:47:22;;;;;;;0.90;0.80;;;12.30;99.90;;;;;;5050186;28;20423;-71
2022/02/15 10:49:48;;;;;;;7.37;0.90;;;13.30;99.90;;;;;;5030977;28;20492;-72
2022/02/15 10:52:14;;;;;;;5.53;0.90;;;14.20;99.90;;;;;;5028496;28;20461;-72
2022/02/15 10:54:43;;;;;;;0.97;0.70;;;14.80;99.90;;;;;;5031523;28;20205;-71
2022/02/15 10:57:16;;;;;;;1.27;1.17;;;15.20;99.90;;;;;;5044080;28;20458;-72
2022/02/15 10:59:46;;;;;;;0.90;0.70;;;15.00;99.90;;;;;;5030724;28;20949;-72
2022/02/15 11:02:25;;;;;;;2.80;1.00;;;14.90;99.90;;;;;;5032123;28;20484;-72
2022/02/15 11:04:55;;;;;;;0.80;0.60;;;14.70;99.90;;;;;;5030760;28;20505;-72
2022/02/15 11:07:26;;;;;;;1.10;0.97;;;14.90;99.20;;;;;;5031609;28;20442;-71
2022/02/15 11:10:22;;;;;;;1.17;0.83;;;16.00;98.30;;;;;;5030735;28;20446;-72
2022/02/15 11:12:56;;;;;;;1.00;0.83;;;18.00;98.30;;;;;;5030103;28;20835;-73
2022/02/15 11:15:27;;;;;;;1.70;0.97;;;19.80;91.30;;;;;;5032340;28;20468;-71
2022/02/15 11:18:04;;;;;;;0.80;0.70;;;21.40;73.60;;;;;;5030700;28;20441;-70
2022/02/15 11:20:50;;;;;;;3.00;2.70;;;21.80;67.00;;;;;;5022405;28;20450;-72
2022/02/15 11:23:23;;;;;;;0.90;0.60;;;22.40;61.00;;;;;;5022681;28;20422;-72
2022/02/15 11:26:01;;;;;;;1.20;1.00;;;22.70;58.00;;;;;;5030424;28;20426;-72
2022/02/15 11:28:26;;;;;;;0.90;0.80;;;23.30;56.30;;;;;;5030405;28;20438;-73
2022/02/15 11:30:57;;;;;;;0.90;0.70;;;24.00;54.30;;;;;;5026820;28;20446;-72
2022/02/15 11:33:28;;;;;;;1.20;1.10;;;24.80;52.90;;;;;;5017025;28;20601;-73
2022/02/15 11:35:56;;;;;;;1.80;1.10;;;25.30;49.60;;;;;;5031543;28;20458;-72
2022/02/15 11:38:24;;;;;;;1.33;0.83;;;25.00;48.50;;;;;;5029512;28;20417;-72
2022/02/15 11:40:57;;;;;;;1.43;1.33;;;25.00;48.40;;;;;;5031739;28;20428;-72
2022/02/15 11:43:23;;;;;;;1.37;0.93;;;25.00;48.50;;;;;;5029411;28;20414;-72
2022/02/15 11:45:49;;;;;;;1.53;0.80;;;25.40;48.50;;;;;;5031164;28;20410;-72
2022/02/15 11:48:14;;;;;;;0.90;0.73;;;25.90;47.90;;;;;;5026714;28;20215;-73
2022/02/15 11:50:47;;;;;;;1.00;0.90;;;25.90;47.00;;;;;;5038197;28;20445;-71
2022/02/15 11:53:16;;;;;;;1.10;1.00;;;26.20;46.10;;;;;;5055025;28;20205;-73
2022/02/15 11:55:42;;;;;;;0.80;0.60;;;26.50;45.00;;;;;;5054359;28;20467;-72
2022/02/15 11:58:09;;;;;;;1.37;1.27;;;26.10;43.50;;;;;;5054820;28;20428;-72
2022/02/15 12:00:36;;;;;;;0.80;0.60;;;26.20;43.20;;;;;;5040194;28;20963;-73
2022/02/15 12:03:03;;;;;;;2.23;0.80;;;26.80;42.70;;;;;;5023876;28;20423;-73
2022/02/15 12:05:30;;;;;;;0.80;0.60;;;27.20;40.80;;;;;;5020175;28;20430;-72
2022/02/15 12:07:57;;;;;;;2.90;1.33;;;27.50;40.20;;;;;;5035314;28;20417;-72
2022/02/15 12:10:24;;;;;;;0.90;0.60;;;27.70;39.90;;;;;;5021454;28;20443;-72
2022/02/15 12:12:52;;;;;;;0.80;0.60;;;27.90;40.30;;;;;;5022992;28;20517;-72
2022/02/15 12:15:18;;;;;;;1.43;1.27;;;28.20;39.00;;;;;;5015069;28;20459;-71
2022/02/15 12:17:44;;;;;;;2.93;2.30;;;28.00;38.80;;;;;;5046705;28;20422;-72
2022/02/15 12:20:17;;;;;;;1.00;0.87;;;26.80;38.80;;;;;;5030728;28;20458;-71
2022/02/15 12:22:52;;;;;;;1.07;0.80;;;25.90;39.60;;;;;;5019712;28;20183;-71
2022/02/15 12:25:18;;;;;;;0.80;0.60;;;25.90;41.40;;;;;;5034524;28;20413;-69
2022/02/15 12:27:46;;;;;;;0.90;0.70;;;26.60;41.40;;;;;;5041989;28;20438;-72
2022/02/15 12:30:14;;;;;;;0.90;0.77;;;27.30;40.20;;;;;;5034850;28;20519;-71
2022/02/15 12:32:43;;;;;;;0.80;0.60;;;27.70;38.40;;;;;;5032466;28;20514;-73
2022/02/15 12:35:09;;;;;;;0.80;0.60;;;28.00;39.30;;;;;;5031867;28;20434;-73
2022/02/15 12:37:35;;;;;;;1.10;0.70;;;28.60;39.30;;;;;;5034376;28;20484;-72
2022/02/15 12:40:03;;;;;;;0.80;0.60;;;29.10;37.60;;;;;;5024326;28;20196;-73
2022/02/15 12:42:29;;;;;;;1.73;0.80;;;29.50;36.60;;;;;;5014922;28;20973;-72
2022/02/15 12:45:04;;;;;;;0.90;0.60;;;28.80;36.40;;;;;;5014793;28;20438;-72
2022/02/15 12:47:32;;;;;;;0.90;0.70;;;28.40;37.10;;;;;;5032656;28;20911;-72
2022/02/15 12:49:58;;;;;;;0.80;0.60;;;28.10;37.40;;;;;;5034443;28;20445;-71
2022/02/15 12:52:27;;;;;;;0.80;0.60;;;27.70;37.40;;;;;;5027392;28;20958;-71
2022/02/15 12:54:55;;;;;;;1.17;1.00;;;27.80;38.40;;;;;;5029063;28;20434;-72
2022/02/15 12:57:22;;;;;;;0.87;0.70;;;27.80;38.00;;;;;;5030535;28;20966;-72